createdAt,value
2023-02-03T00:03:15.248Z,0
2023-02-03T00:06:40.494Z,0
2023-02-03T00:10:05.731Z,0
2023-02-03T00:13:30.978Z,0
2023-02-03T00:16:56.165Z,0
2023-02-03T00:20:21.998Z,0
2023-02-03T00:23:47.247Z,0
2023-02-03T00:27:12.537Z,0
2023-02-03T00:30:37.822Z,0
2023-02-03T00:34:03.032Z,0
2023-02-03T00:37:28.289Z,0
2023-02-03T00:40:53.512Z,0
2023-02-03T00:44:18.771Z,0
2023-02-03T00:47:44.028Z,0
2023-02-03T00:51:09.258Z,0
2023-02-03T00:54:34.519Z,0
2023-02-03T00:57:59.743Z,0
2023-02-03T01:01:25.043Z,0
2023-02-03T01:04:50.264Z,0
2023-02-03T01:08:15.478Z,0
2023-02-03T01:11:40.711Z,0
2023-02-03T01:15:05.971Z,0
2023-02-03T01:18:31.259Z,0
2023-02-03T01:21:56.538Z,0
2023-02-03T01:25:21.767Z,0
2023-02-03T01:28:47.007Z,0
2023-02-03T01:32:12.238Z,0
2023-02-03T01:35:37.474Z,0
2023-02-03T01:39:02.751Z,0
2023-02-03T01:42:27.973Z,0
2023-02-03T01:45:53.211Z,0
2023-02-03T01:49:18.437Z,0
2023-02-03T01:52:43.689Z,0
2023-02-03T01:56:08.946Z,0
2023-02-03T01:59:35.173Z,0
2023-02-03T02:03:00.422Z,0
2023-02-03T02:06:25.665Z,0
2023-02-03T02:09:50.909Z,0
2023-02-03T02:13:16.203Z,0
2023-02-03T02:16:41.417Z,0
2023-02-03T02:20:06.673Z,0
2023-02-03T02:23:31.945Z,0
2023-02-03T02:26:57.187Z,0
2023-02-03T02:30:22.485Z,0
2023-02-03T02:33:47.704Z,0
2023-02-03T02:37:12.946Z,0
2023-02-03T02:40:38.199Z,0
2023-02-03T02:44:03.464Z,0
2023-02-03T02:47:28.743Z,0
2023-02-03T02:50:54.002Z,0
2023-02-03T02:54:19.234Z,0
2023-02-03T02:57:44.487Z,0
2023-02-03T03:01:09.859Z,0
2023-02-03T03:04:35.207Z,0
2023-02-03T03:08:00.269Z,0
2023-02-03T03:11:25.523Z,0
2023-02-03T03:14:50.790Z,0
2023-02-03T03:18:16.066Z,0
2023-02-03T03:21:41.317Z,0
2023-02-03T03:25:06.537Z,0
2023-02-03T03:28:31.787Z,0
2023-02-03T03:31:57.031Z,0
2023-02-03T03:35:22.268Z,0
2023-02-03T03:38:47.544Z,0
2023-02-03T03:42:12.729Z,0
2023-02-03T03:45:38.015Z,0
2023-02-03T03:49:03.237Z,0
2023-02-03T03:52:28.435Z,0
2023-02-03T03:55:53.711Z,0
2023-02-03T03:59:18.935Z,0
2023-02-03T04:02:44.368Z,0
2023-02-03T04:06:09.419Z,0
2023-02-03T04:09:34.692Z,0
2023-02-03T04:12:59.928Z,0
2023-02-03T04:16:25.224Z,0
2023-02-03T04:19:50.471Z,0
2023-02-03T04:23:15.691Z,0
2023-02-03T04:26:40.939Z,0
2023-02-03T04:30:07.784Z,0
2023-02-03T04:33:33.003Z,0
2023-02-03T04:36:58.253Z,0
2023-02-03T04:40:23.528Z,0
2023-02-03T04:43:48.761Z,0
2023-02-03T04:47:14.012Z,0
2023-02-03T04:50:39.205Z,0
2023-02-03T04:54:04.462Z,0
2023-02-03T04:57:29.683Z,0
2023-02-03T05:00:55.013Z,0
2023-02-03T05:04:20.182Z,0
2023-02-03T05:07:45.417Z,0
2023-02-03T05:11:10.747Z,0
2023-02-03T05:14:36.044Z,0
2023-02-03T05:18:01.354Z,0
2023-02-03T05:21:26.588Z,0
2023-02-03T05:24:51.796Z,0
2023-02-03T05:28:17.116Z,0
2023-02-03T05:31:42.364Z,0
2023-02-03T05:35:07.534Z,0
2023-02-03T05:38:32.720Z,0
2023-02-03T05:41:58.595Z,0
2023-02-03T05:45:23.171Z,0
2023-02-03T05:48:48.329Z,0
2023-02-03T05:52:13.486Z,0
2023-02-03T05:55:38.710Z,0
2023-02-03T05:59:03.863Z,0
2023-02-03T06:02:29.027Z,0
2023-02-03T06:05:54.217Z,0
2023-02-03T06:09:19.397Z,0
2023-02-03T06:12:44.615Z,0
2023-02-03T06:16:09.947Z,0
2023-02-03T06:19:34.952Z,0
2023-02-03T06:23:00.141Z,0
2023-02-03T06:26:25.293Z,0
2023-02-03T06:29:50.597Z,0
2023-02-03T06:33:15.674Z,0
2023-02-03T06:36:40.833Z,0
2023-02-03T06:40:06.014Z,0
2023-02-03T06:43:31.160Z,0
2023-02-03T06:46:56.381Z,0
2023-02-03T06:50:21.559Z,0
2023-02-03T06:53:46.721Z,0
2023-02-03T06:57:11.903Z,0
2023-02-03T07:00:37.121Z,0
2023-02-03T07:04:02.304Z,0
2023-02-03T07:07:27.462Z,0
2023-02-03T07:10:52.655Z,0
2023-02-03T07:14:17.822Z,0
2023-02-03T07:17:42.995Z,0
2023-02-03T07:21:08.214Z,0
2023-02-03T07:24:33.320Z,0
2023-02-03T07:27:58.581Z,6
2023-02-03T07:31:23.868Z,11
2023-02-03T07:34:48.927Z,11
2023-02-03T07:38:14.113Z,11
2023-02-03T07:41:39.237Z,11
2023-02-03T07:45:04.425Z,11
2023-02-03T07:48:29.580Z,23
2023-02-03T07:51:54.756Z,28
2023-02-03T07:55:19.947Z,28
2023-02-03T07:58:45.066Z,28
2023-02-03T08:02:10.239Z,34
2023-02-03T08:05:35.399Z,34
2023-02-03T08:09:00.541Z,28
2023-02-03T08:12:25.736Z,23
2023-02-03T08:15:50.925Z,23
2023-02-03T08:19:16.072Z,28
2023-02-03T08:22:41.244Z,34
2023-02-03T08:26:06.477Z,39
2023-02-03T08:29:31.685Z,39
2023-02-03T08:32:56.842Z,34
2023-02-03T08:36:22.033Z,28
2023-02-03T08:39:47.270Z,23
2023-02-03T08:43:12.511Z,23
2023-02-03T08:46:37.858Z,23
2023-02-03T08:50:02.944Z,23
2023-02-03T08:53:28.120Z,17
2023-02-03T08:56:53.341Z,28
2023-02-03T09:00:18.505Z,28
2023-02-03T09:03:43.717Z,34
2023-02-03T09:07:08.990Z,34
2023-02-03T09:10:34.133Z,51
2023-02-03T09:13:59.305Z,45
2023-02-03T09:17:24.510Z,62
2023-02-03T09:20:49.746Z,62
2023-02-03T09:24:14.889Z,73
2023-02-03T09:27:40.215Z,73
2023-02-03T09:31:05.391Z,51
2023-02-03T09:34:30.495Z,45
2023-02-03T09:37:55.728Z,34
2023-02-03T09:41:20.908Z,34
2023-02-03T09:44:46.147Z,34
2023-02-03T09:48:11.366Z,39
2023-02-03T09:51:36.555Z,45
2023-02-03T09:55:01.791Z,56
2023-02-03T09:58:26.943Z,56
2023-02-03T10:01:52.172Z,62
2023-02-03T10:05:17.362Z,73
2023-02-03T10:08:42.602Z,84
2023-02-03T10:12:07.904Z,79
2023-02-03T10:15:32.995Z,73
2023-02-03T10:18:58.220Z,62
2023-02-03T10:22:23.477Z,62
2023-02-03T10:25:48.698Z,73
2023-02-03T10:29:13.963Z,68
2023-02-03T10:32:39.141Z,84
2023-02-03T10:36:04.334Z,96
2023-02-03T10:39:29.553Z,90
2023-02-03T10:42:54.750Z,90
2023-02-03T10:46:20.034Z,96
2023-02-03T10:49:46.201Z,73
2023-02-03T10:53:11.391Z,68
2023-02-03T10:56:36.613Z,51
2023-02-03T11:00:01.818Z,45
2023-02-03T11:03:27.056Z,51
2023-02-03T11:06:52.196Z,39
2023-02-03T11:10:17.374Z,34
2023-02-03T11:13:42.590Z,34
2023-02-03T11:17:07.765Z,34
2023-02-03T11:20:33.017Z,45
2023-02-03T11:23:58.127Z,45
2023-02-03T11:27:23.366Z,39
2023-02-03T11:30:48.684Z,34
2023-02-03T11:34:13.735Z,39
2023-02-03T11:37:38.967Z,34
2023-02-03T11:41:04.119Z,45
2023-02-03T11:44:29.611Z,51
2023-02-03T11:47:54.631Z,56
2023-02-03T11:51:19.789Z,45
2023-02-03T11:54:45.008Z,51
2023-02-03T11:58:10.201Z,68
2023-02-03T12:01:35.404Z,101
2023-02-03T12:05:01.200Z,107
2023-02-03T12:08:25.795Z,129
2023-02-03T12:11:51.006Z,129
2023-02-03T12:15:16.206Z,124
2023-02-03T12:18:41.364Z,79
2023-02-03T12:22:06.588Z,45
2023-02-03T12:25:31.789Z,34
2023-02-03T12:28:57.006Z,23
2023-02-03T12:32:22.174Z,23
2023-02-03T12:35:47.360Z,17
2023-02-03T12:39:12.546Z,17
2023-02-03T12:42:37.762Z,23
2023-02-03T12:46:03.884Z,23
2023-02-03T12:49:28.190Z,28
2023-02-03T12:52:53.395Z,23
2023-02-03T12:56:18.607Z,28
2023-02-03T12:59:43.816Z,34
2023-02-03T13:03:09.053Z,28
2023-02-03T13:06:34.223Z,28
2023-02-03T13:09:59.483Z,23
2023-02-03T13:13:24.656Z,28
2023-02-03T13:16:51.871Z,23
2023-02-03T13:20:15.082Z,28
2023-02-03T13:23:40.312Z,23
2023-02-03T13:27:05.602Z,23
2023-02-03T13:30:31.003Z,23
2023-02-03T13:33:55.988Z,23
2023-02-03T13:37:21.208Z,17
2023-02-03T13:40:46.433Z,23
2023-02-03T13:44:11.691Z,23
2023-02-03T13:47:36.909Z,28
2023-02-03T13:51:02.166Z,17
2023-02-03T13:54:27.442Z,17
2023-02-03T13:57:52.599Z,17
2023-02-03T14:01:17.821Z,23
2023-02-03T14:04:43.118Z,17
2023-02-03T14:08:08.257Z,17
2023-02-03T14:11:33.483Z,17
2023-02-03T14:14:58.683Z,28
2023-02-03T14:18:23.879Z,23
2023-02-03T14:21:49.120Z,28
2023-02-03T14:25:14.374Z,34
2023-02-03T14:28:39.702Z,28
2023-02-03T15:05:49.637Z,0
2023-02-03T15:09:14.777Z,6
2023-02-03T15:12:39.949Z,6
2023-02-03T15:16:05.268Z,6
2023-02-03T15:19:30.415Z,6
2023-02-03T15:22:55.639Z,6
2023-02-03T15:26:20.805Z,6
2023-02-03T15:29:45.998Z,0
2023-02-03T15:33:11.249Z,6
2023-02-03T15:36:36.456Z,0
2023-02-03T15:40:01.703Z,0
2023-02-03T15:43:26.792Z,0
2023-02-03T15:46:52.194Z,0
2023-02-03T15:50:17.137Z,0
2023-02-03T15:53:47.427Z,0
2023-02-03T15:57:07.531Z,0
2023-02-03T16:00:32.695Z,0
2023-02-03T16:03:57.868Z,0
2023-02-03T16:07:23.086Z,0
2023-02-03T16:10:48.258Z,0
2023-02-03T16:14:13.827Z,0
2023-02-03T16:17:39.081Z,0
2023-02-03T16:21:04.278Z,0
2023-02-03T16:24:29.469Z,0
2023-02-03T16:27:54.700Z,0
2023-02-03T16:31:20.017Z,0
2023-02-03T16:34:45.094Z,0
2023-02-03T16:38:10.289Z,0
2023-02-03T16:41:35.495Z,0
2023-02-03T16:45:00.686Z,0
2023-02-03T16:48:25.907Z,0
2023-02-03T16:51:51.064Z,0
2023-02-03T16:55:16.275Z,0
2023-02-03T16:58:41.433Z,0
2023-02-03T17:02:06.733Z,0
2023-02-03T17:05:32.340Z,0
2023-02-03T17:08:58.845Z,0
2023-02-03T17:12:22.446Z,0
2023-02-03T17:15:47.695Z,0
2023-02-03T17:19:13.394Z,0
2023-02-03T17:22:38.685Z,0
2023-02-03T17:26:03.899Z,0
2023-02-03T17:29:29.139Z,0
2023-02-03T17:32:54.468Z,0
2023-02-03T17:36:19.717Z,0
2023-02-03T17:53:45.967Z,0
2023-02-03T17:57:11.174Z,0
2023-02-03T18:00:36.430Z,0
2023-02-03T18:04:01.681Z,0
2023-02-03T18:07:26.917Z,0
2023-02-03T18:10:52.295Z,0
2023-02-03T18:14:17.484Z,0
2023-02-03T18:17:42.783Z,0
2023-02-03T18:21:08.075Z,0
2023-02-03T18:24:33.272Z,0
2023-02-03T18:27:58.529Z,0
2023-02-03T18:31:23.762Z,0
2023-02-03T18:34:48.896Z,0
2023-02-03T18:38:14.118Z,0
2023-02-03T18:41:39.365Z,0
2023-02-03T18:45:04.603Z,0
2023-02-03T18:48:29.849Z,0
2023-02-03T18:51:55.148Z,0
2023-02-03T18:55:20.353Z,0
2023-02-03T18:58:45.602Z,0
2023-02-03T19:02:10.890Z,0
2023-02-03T19:05:36.083Z,0
2023-02-03T19:09:01.308Z,0
2023-02-03T19:12:26.570Z,0
2023-02-03T19:15:51.908Z,0
2023-02-03T19:19:17.126Z,0
2023-02-03T19:22:42.360Z,0
2023-02-03T19:26:07.618Z,0
2023-02-03T19:29:32.867Z,0
2023-02-03T19:32:58.093Z,0
2023-02-03T19:36:23.339Z,0
2023-02-03T19:39:48.559Z,0
2023-02-03T19:43:13.816Z,0
2023-02-03T19:46:39.102Z,0
2023-02-03T19:50:04.307Z,0
2023-02-03T19:53:29.570Z,0
2023-02-03T19:56:54.842Z,0
2023-02-03T20:00:20.132Z,0
2023-02-03T20:03:45.387Z,0
2023-02-03T20:07:10.614Z,0
2023-02-03T20:10:35.878Z,0
2023-02-03T20:14:01.099Z,0
2023-02-03T20:17:26.368Z,0
2023-02-03T20:20:51.638Z,0
2023-02-03T20:24:16.848Z,0
2023-02-03T20:27:42.152Z,0
2023-02-03T20:31:07.414Z,0
2023-02-03T20:34:32.569Z,0
2023-02-03T20:37:57.894Z,0
2023-02-03T20:41:23.127Z,0
2023-02-03T20:44:48.382Z,0
2023-02-03T20:48:13.551Z,0
2023-02-03T20:51:38.753Z,0
2023-02-03T20:55:03.959Z,0
2023-02-03T20:58:29.170Z,0
2023-02-03T21:01:54.420Z,0
2023-02-03T21:05:19.541Z,0
2023-02-03T21:08:44.755Z,0
2023-02-03T21:12:09.963Z,0
2023-02-03T21:15:35.176Z,0
2023-02-03T21:19:00.469Z,0
2023-02-03T21:22:25.589Z,0
2023-02-03T21:25:50.785Z,0
2023-02-03T21:29:16.016Z,0
2023-02-03T21:32:41.208Z,0
2023-02-03T21:36:06.433Z,0
2023-02-03T21:39:31.568Z,0
2023-02-03T21:42:56.767Z,0
2023-02-03T21:46:21.975Z,0
2023-02-03T21:49:47.209Z,0
2023-02-03T21:53:12.452Z,0
2023-02-03T21:56:37.570Z,0
2023-02-03T22:00:02.755Z,0
2023-02-03T22:03:27.961Z,0
2023-02-03T22:06:53.179Z,0
2023-02-03T22:10:18.437Z,0
2023-02-03T22:13:43.644Z,0
2023-02-03T22:17:08.840Z,0
2023-02-03T22:20:34.095Z,0
2023-02-03T22:23:59.340Z,0
2023-02-03T22:27:24.526Z,0
2023-02-03T22:30:49.792Z,0
2023-02-03T22:34:14.829Z,0
2023-02-03T22:37:40.018Z,0
2023-02-03T22:41:05.216Z,0
2023-02-03T22:44:30.437Z,0
2023-02-03T22:47:55.606Z,0
2023-02-03T22:51:20.753Z,0
2023-02-03T22:54:45.983Z,0
2023-02-03T22:58:11.224Z,0
2023-02-03T23:01:36.454Z,0
2023-02-03T23:05:01.754Z,0
2023-02-03T23:08:26.816Z,0
2023-02-03T23:11:52.003Z,0
2023-02-03T23:15:17.180Z,0
2023-02-03T23:18:42.406Z,0
2023-02-03T23:22:07.593Z,0
2023-02-03T23:25:32.805Z,0
2023-02-03T23:28:57.969Z,0
2023-02-03T23:32:23.208Z,0
2023-02-03T23:35:48.459Z,0
2023-02-03T23:39:13.566Z,0
2023-02-03T23:42:38.755Z,0
2023-02-03T23:46:03.991Z,0
2023-02-03T23:49:29.109Z,0
2023-02-03T23:52:54.323Z,0
2023-02-03T23:56:19.479Z,0
2023-02-03T23:59:44.702Z,0
